Terminal Aerodrome Forecast
Issued by NWS Wichita, KS

Home | Current Version | Previous Version | Text Only | Print | Product List | Glossary Off
Versions: 1 2 3 4 5 6 7 8 9 10 11 12 13 14 15

000
FTUS43 KICT 301725
TAFICT
TAF
KICT 301725Z 3018/3118 VRB06KT P6SM SCT025
     FM302000 13008KT P6SM SCT035
     FM310600 11005KT 5SM BR SCT015=

USA.gov is the U.S. government's official web portal to all federal, state and local government web resources and services.